createdAt,value
2023-02-15T00:00:11.917Z,69.07
2023-02-15T00:01:12.676Z,70.10
2023-02-15T00:02:13.149Z,70.96
2023-02-15T00:03:13.252Z,71.41
2023-02-15T00:04:12.600Z,72.13
2023-02-15T00:05:12.784Z,72.78
2023-02-15T00:06:12.956Z,73.33
2023-02-15T00:07:13.166Z,73.95
2023-02-15T00:08:13.993Z,74.19
2023-02-15T00:09:13.503Z,74.40
2023-02-15T00:10:14.634Z,74.02
2023-02-15T00:11:13.884Z,75.91
2023-02-15T00:12:14.082Z,74.88
2023-02-15T00:13:14.266Z,74.46
2023-02-15T00:14:14.397Z,74.88
2023-02-15T00:15:15.172Z,75.60
2023-02-15T00:16:14.694Z,75.70
2023-02-15T00:17:14.844Z,75.60
2023-02-15T00:18:15.673Z,76.43
2023-02-15T00:19:15.155Z,75.70
2023-02-15T00:20:16.296Z,75.40
2023-02-15T00:21:16.137Z,75.43
2023-02-15T00:22:15.656Z,76.01
2023-02-15T00:23:15.818Z,76.43
2023-02-15T00:24:15.967Z,76.12
2023-02-15T00:25:16.183Z,75.78
2023-02-15T00:26:16.356Z,75.05
2023-02-15T00:27:16.510Z,75.05
2023-02-15T00:28:16.662Z,74.63
2023-02-15T00:29:16.807Z,73.91
2023-02-15T00:30:17.115Z,74.40
2023-02-15T00:31:17.321Z,73.74
2023-02-15T00:32:17.386Z,73.50
2023-02-15T00:33:17.519Z,72.85
2023-02-15T00:34:17.665Z,72.85
2023-02-15T00:35:17.858Z,72.64
2023-02-15T00:36:18.022Z,72.74
2023-02-15T00:37:18.200Z,72.95
2023-02-15T00:38:18.361Z,73.36
2023-02-15T00:39:18.521Z,73.26
2023-02-15T00:40:19.175Z,73.47
2023-02-15T00:41:18.866Z,73.60
2023-02-15T00:42:19.122Z,73.60
2023-02-15T00:43:19.137Z,73.39
2023-02-15T00:44:19.304Z,73.50
2023-02-15T00:45:19.491Z,73.57
2023-02-15T00:46:20.710Z,73.05
2023-02-15T00:47:21.142Z,72.85
2023-02-15T00:48:20.021Z,72.74
2023-02-15T00:49:20.186Z,72.30
2023-02-15T00:50:23.687Z,72.09
2023-02-15T00:51:22.148Z,71.68
2023-02-15T00:52:20.793Z,71.99
2023-02-15T00:53:22.647Z,72.06
2023-02-15T00:54:21.128Z,71.99
2023-02-15T00:55:22.291Z,72.30
2023-02-15T00:56:21.418Z,72.61
2023-02-15T00:57:21.598Z,72.81
2023-02-15T00:58:22.678Z,73.16
2023-02-15T00:59:21.928Z,73.16
2023-02-15T01:00:22.644Z,73.98
2023-02-15T01:01:22.369Z,74.08
2023-02-15T01:02:23.146Z,74.22
2023-02-15T01:03:22.664Z,73.88
2023-02-15T01:04:22.845Z,74.29
2023-02-15T01:05:23.686Z,74.08
2023-02-15T01:06:23.220Z,73.98
2023-02-15T01:07:24.153Z,74.26
2023-02-15T01:08:23.535Z,74.19
2023-02-15T01:09:23.724Z,74.71
2023-02-15T01:10:23.919Z,75.22
2023-02-15T01:11:24.140Z,75.22
2023-02-15T01:12:24.327Z,75.12
2023-02-15T01:13:25.153Z,75.32
2023-02-15T01:14:24.688Z,74.91
2023-02-15T01:15:24.859Z,75.77
2023-02-15T01:16:25.811Z,75.43
2023-02-15T01:17:27.013Z,75.67
2023-02-15T01:18:26.151Z,75.57
2023-02-15T01:19:25.574Z,75.43
2023-02-15T01:20:25.744Z,75.43
2023-02-15T01:21:26.663Z,75.26
2023-02-15T01:22:26.109Z,75.84
2023-02-15T01:23:26.329Z,76.60
2023-02-15T01:24:26.432Z,76.39
2023-02-15T01:25:28.153Z,75.98
2023-02-15T01:26:26.823Z,77.15
2023-02-15T01:27:27.052Z,77.39
2023-02-15T01:28:28.196Z,77.12
2023-02-15T01:29:28.228Z,77.64
2023-02-15T01:30:27.512Z,78.53
2023-02-15T01:31:27.979Z,78.95
2023-02-15T01:32:27.964Z,80.22
2023-02-15T01:33:28.656Z,80.54
2023-02-15T01:34:29.157Z,81.68
2023-02-15T01:35:28.446Z,81.88
2023-02-15T01:36:29.597Z,81.92
2023-02-15T01:37:29.763Z,83.06
2023-02-15T01:38:29.661Z,83.51
2023-02-15T01:39:29.103Z,83.83
2023-02-15T01:40:29.300Z,84.09
2023-02-15T01:41:29.490Z,83.44
2023-02-15T01:42:30.156Z,82.50
2023-02-15T01:43:29.846Z,82.57
2023-02-15T01:44:30.016Z,81.84
2023-02-15T01:45:30.179Z,81.49
2023-02-15T01:46:30.401Z,80.98
2023-02-15T01:47:30.507Z,80.26
2023-02-15T01:48:30.706Z,80.22
2023-02-15T01:49:30.881Z,79.60
2023-02-15T01:50:31.054Z,78.98
2023-02-15T01:51:31.283Z,78.63
2023-02-15T01:52:31.350Z,78.08
2023-02-15T01:53:31.533Z,77.56
2023-02-15T01:54:32.666Z,77.04
2023-02-15T01:55:31.945Z,77.11
2023-02-15T01:56:32.120Z,76.84
2023-02-15T01:57:32.296Z,77.11
2023-02-15T01:58:32.477Z,77.42
2023-02-15T01:59:32.734Z,77.15
2023-02-15T02:00:32.818Z,77.25
2023-02-15T02:01:33.737Z,77.04
2023-02-15T02:02:34.180Z,76.84
2023-02-15T02:03:33.304Z,77.04
2023-02-15T02:04:33.483Z,76.94
2023-02-15T02:05:35.152Z,77.56
2023-02-15T02:06:33.911Z,77.77
2023-02-15T02:07:34.109Z,77.67
2023-02-15T02:08:34.285Z,77.56
2023-02-15T02:09:34.456Z,77.60
2023-02-15T02:10:36.151Z,77.60
2023-02-15T02:11:34.800Z,77.46
2023-02-15T02:12:34.962Z,77.46
2023-02-15T02:13:35.663Z,77.46
2023-02-15T02:14:36.154Z,77.08
2023-02-15T02:15:36.199Z,77.56
2023-02-15T02:16:36.207Z,77.46
2023-02-15T02:17:36.005Z,77.56
2023-02-15T02:18:36.156Z,77.77
2023-02-15T02:19:36.301Z,77.46
2023-02-15T02:20:36.473Z,77.56
2023-02-15T02:21:36.676Z,77.46
2023-02-15T02:22:37.707Z,77.77
2023-02-15T02:23:37.701Z,77.53
2023-02-15T02:24:38.157Z,77.77
2023-02-15T02:25:38.153Z,77.56
2023-02-15T02:26:37.545Z,77.46
2023-02-15T02:27:37.710Z,77.46
2023-02-15T02:28:39.037Z,77.67
2023-02-15T02:29:38.656Z,77.46
2023-02-15T02:30:38.377Z,77.67
2023-02-15T02:31:38.407Z,77.87
2023-02-15T02:32:38.526Z,77.56
2023-02-15T02:33:38.695Z,77.67
2023-02-15T02:34:39.654Z,77.81
2023-02-15T02:35:39.061Z,78.32
2023-02-15T02:36:40.205Z,78.42
2023-02-15T02:37:39.505Z,78.74
2023-02-15T02:38:39.720Z,78.63
2023-02-15T02:39:40.703Z,78.88
2023-02-15T02:40:40.103Z,78.77
2023-02-15T02:41:40.259Z,78.98
2023-02-15T02:42:40.443Z,78.98
2023-02-15T02:43:40.629Z,79.80
2023-02-15T02:44:40.800Z,79.29
2023-02-15T02:45:41.661Z,79.43
2023-02-15T02:46:41.228Z,79.22
2023-02-15T02:47:42.162Z,79.36
2023-02-15T02:48:41.537Z,79.67
2023-02-15T02:49:41.704Z,80.43
2023-02-15T02:50:43.536Z,80.88
2023-02-15T02:51:42.067Z,81.54
2023-02-15T02:52:42.249Z,81.23
2023-02-15T02:53:42.413Z,81.79
2023-02-15T02:54:43.169Z,81.99
2023-02-15T02:55:42.838Z,83.07
2023-02-15T02:56:43.035Z,82.45
2023-02-15T02:57:44.211Z,82.76
2023-02-15T02:58:43.356Z,83.48
2023-02-15T02:59:43.547Z,83.53
2023-02-15T03:00:43.723Z,84.67
2023-02-15T03:01:44.742Z,84.67
2023-02-15T03:02:44.768Z,85.71
2023-02-15T03:03:44.249Z,85.39
2023-02-15T03:04:44.440Z,85.22
2023-02-15T03:05:44.646Z,85.39
2023-02-15T03:06:44.842Z,85.64
2023-02-15T03:07:45.026Z,85.78
2023-02-15T03:08:45.260Z,85.99
2023-02-15T03:09:46.166Z,86.09
2023-02-15T03:10:45.582Z,85.72
2023-02-15T03:11:46.711Z,86.24
2023-02-15T03:12:45.984Z,86.76
2023-02-15T03:13:48.184Z,86.65
2023-02-15T03:14:46.358Z,86.90
2023-02-15T03:15:46.552Z,86.80
2023-02-15T03:16:47.537Z,87.01
2023-02-15T03:17:46.936Z,87.52
2023-02-15T03:18:47.114Z,88.19
2023-02-15T03:19:47.297Z,88.19
2023-02-15T03:20:47.444Z,88.29
2023-02-15T03:21:47.616Z,88.29
2023-02-15T03:22:47.766Z,89.27
2023-02-15T03:23:47.942Z,88.54
2023-02-15T03:24:48.674Z,88.96
2023-02-15T03:25:49.039Z,89.31
2023-02-15T03:26:48.459Z,89.89
2023-02-15T03:27:49.172Z,90.31
2023-02-15T03:28:49.673Z,89.89
2023-02-15T03:29:48.961Z,89.73
2023-02-15T03:30:49.171Z,90.25
2023-02-15T03:31:49.513Z,90.66
2023-02-15T03:32:50.181Z,91.39
2023-02-15T03:33:49.723Z,91.39
2023-02-15T03:34:49.924Z,91.18
2023-02-15T03:35:50.135Z,91.77
2023-02-15T03:36:51.220Z,90.83
2023-02-15T03:37:50.549Z,91.16
2023-02-15T03:38:50.717Z,91.20
2023-02-15T03:39:50.889Z,90.75
2023-02-15T03:40:51.687Z,90.23
2023-02-15T03:41:51.211Z,90.29
2023-02-15T03:42:51.731Z,89.36
2023-02-15T03:43:51.556Z,88.84
2023-02-15T03:44:51.746Z,89.15
2023-02-15T03:45:52.681Z,89.15
2023-02-15T03:46:53.595Z,89.36
2023-02-15T03:47:53.277Z,89.52
2023-02-15T03:48:53.200Z,89.62
2023-02-15T03:49:52.620Z,89.17
2023-02-15T03:50:52.799Z,88.34
2023-02-15T03:51:52.996Z,88.34
2023-02-15T03:52:54.179Z,88.38
2023-02-15T03:53:53.311Z,87.82
2023-02-15T03:54:53.490Z,87.76
2023-02-15T03:55:55.196Z,87.65
2023-02-15T03:56:53.815Z,88.07
2023-02-15T03:57:53.983Z,88.69
2023-02-15T03:58:54.173Z,87.79
2023-02-15T03:59:55.193Z,87.90
2023-02-15T04:00:54.482Z,89.21
2023-02-15T04:01:54.567Z,89.15
2023-02-15T04:02:54.825Z,89.25
2023-02-15T04:03:54.994Z,89.21
2023-02-15T04:04:56.178Z,89.11
2023-02-15T04:05:56.182Z,88.79
2023-02-15T04:06:55.487Z,89.17
2023-02-15T04:07:55.707Z,88.30
2023-02-15T04:08:55.894Z,87.88
2023-02-15T04:09:56.089Z,87.84
2023-02-15T04:10:56.268Z,86.97
2023-02-15T04:11:56.426Z,86.39
2023-02-15T04:12:56.643Z,86.70
2023-02-15T04:13:56.819Z,86.25
2023-02-15T04:14:56.994Z,86.35
2023-02-15T04:15:57.304Z,86.15
2023-02-15T04:16:57.350Z,85.83
2023-02-15T04:17:57.522Z,86.00
2023-02-15T04:18:57.674Z,86.41
2023-02-15T04:19:57.837Z,85.79
2023-02-15T04:20:58.680Z,84.96
2023-02-15T04:21:58.231Z,85.58
2023-02-15T04:22:59.051Z,85.58
2023-02-15T04:23:58.545Z,85.06
2023-02-15T04:24:59.225Z,85.69
2023-02-15T04:25:58.988Z,85.69
2023-02-15T04:26:59.090Z,85.63
2023-02-15T04:28:00.179Z,85.79
2023-02-15T04:28:59.458Z,85.89
2023-02-15T04:29:59.652Z,85.94
2023-02-15T04:30:59.781Z,85.48
2023-02-15T04:32:00.733Z,85.58
2023-02-15T04:33:00.173Z,85.79
2023-02-15T04:34:00.355Z,85.27
2023-02-15T04:35:01.706Z,85.89
2023-02-15T04:36:02.410Z,85.79
2023-02-15T04:37:01.686Z,85.58
2023-02-15T04:38:01.230Z,85.17
2023-02-15T04:39:02.678Z,85.06
2023-02-15T04:40:01.471Z,85.58
2023-02-15T04:41:01.624Z,85.21
2023-02-15T04:42:02.724Z,85.73
2023-02-15T04:43:02.015Z,86.04
2023-02-15T04:44:03.179Z,86.41
2023-02-15T04:45:02.459Z,85.94
2023-02-15T04:46:03.103Z,86.15
2023-02-15T04:47:02.815Z,86.18
2023-02-15T04:48:03.682Z,86.29
2023-02-15T04:49:03.724Z,86.49
2023-02-15T04:50:03.453Z,86.54
2023-02-15T04:51:03.628Z,86.78
2023-02-15T04:52:03.804Z,87.51
2023-02-15T04:53:03.970Z,88.13
2023-02-15T04:54:04.118Z,88.59
2023-02-15T04:55:05.222Z,89.21
2023-02-15T04:56:04.513Z,89.25
2023-02-15T04:57:04.693Z,89.00
2023-02-15T04:58:05.678Z,89.56
2023-02-15T04:59:06.184Z,90.12
2023-02-15T05:00:05.205Z,90.02
2023-02-15T05:01:05.451Z,89.70
2023-02-15T05:02:05.480Z,90.23
2023-02-15T05:03:05.653Z,90.23
2023-02-15T05:04:05.851Z,90.85
2023-02-15T05:05:06.556Z,91.27
2023-02-15T05:06:06.182Z,91.37
2023-02-15T05:07:06.373Z,91.16
2023-02-15T05:08:08.187Z,90.44
2023-02-15T05:09:07.841Z,90.64
2023-02-15T05:10:07.689Z,90.44
2023-02-15T05:11:07.252Z,90.44
2023-02-15T05:12:08.185Z,89.85
2023-02-15T05:13:07.596Z,90.58
2023-02-15T05:14:07.781Z,91.00
2023-02-15T05:15:09.684Z,90.79
2023-02-15T05:16:08.711Z,90.20
2023-02-15T05:17:08.337Z,90.72
2023-02-15T05:18:08.517Z,91.56
2023-02-15T05:19:08.721Z,91.35
2023-02-15T05:20:09.726Z,91.25
2023-02-15T05:21:09.116Z,91.66
2023-02-15T05:22:10.694Z,91.87
2023-02-15T05:23:10.230Z,91.87
2023-02-15T05:24:09.635Z,91.77
2023-02-15T05:25:10.689Z,91.56
2023-02-15T05:26:09.968Z,92.29
2023-02-15T05:27:10.130Z,92.08
2023-02-15T05:28:11.205Z,91.77
2023-02-15T05:29:10.483Z,92.49
2023-02-15T05:30:10.778Z,91.87
2023-02-15T05:31:11.869Z,91.66
2023-02-15T05:32:12.833Z,91.35
2023-02-15T05:33:11.140Z,91.35
2023-02-15T05:34:11.312Z,91.50
2023-02-15T05:35:11.497Z,92.08
2023-02-15T05:36:11.704Z,92.02
2023-02-15T05:37:12.695Z,91.60
2023-02-15T05:38:12.739Z,91.71
2023-02-15T05:39:12.268Z,92.12
2023-02-15T05:40:12.449Z,92.22
2023-02-15T05:41:12.671Z,92.95
2023-02-15T05:42:12.888Z,93.16
2023-02-15T05:43:13.045Z,93.23
2023-02-15T05:44:14.197Z,92.29
2023-02-15T05:45:13.470Z,92.08
2023-02-15T05:46:14.287Z,91.66
2023-02-15T05:47:13.790Z,91.25
2023-02-15T05:48:15.195Z,91.87
2023-02-15T05:49:14.071Z,91.87
2023-02-15T05:50:14.746Z,92.12
2023-02-15T05:51:15.246Z,92.08
2023-02-15T05:52:14.663Z,91.77
2023-02-15T05:53:16.698Z,91.66
2023-02-15T05:54:15.698Z,92.22
2023-02-15T05:55:15.228Z,91.97
2023-02-15T05:56:15.405Z,92.22
2023-02-15T05:57:15.597Z,92.22
2023-02-15T05:58:15.789Z,92.12
2023-02-15T05:59:16.713Z,92.43
2023-02-15T06:00:16.137Z,92.33
2023-02-15T06:01:16.351Z,92.43
2023-02-15T06:02:17.224Z,92.33
2023-02-15T06:03:17.748Z,92.47
2023-02-15T06:04:16.891Z,93.10
2023-02-15T06:05:17.039Z,93.16
2023-02-15T06:06:17.187Z,93.52
2023-02-15T06:07:17.391Z,93.48
2023-02-15T06:08:17.557Z,93.16
2023-02-15T06:09:18.244Z,93.37
2023-02-15T06:10:20.698Z,92.95
2023-02-15T06:11:18.066Z,92.95
2023-02-15T06:12:18.748Z,92.95
2023-02-15T06:13:18.438Z,93.05
2023-02-15T06:14:19.253Z,92.95
2023-02-15T06:15:18.762Z,93.16
2023-02-15T06:16:18.953Z,93.05
2023-02-15T06:17:19.042Z,92.89
2023-02-15T06:18:19.288Z,92.99
2023-02-15T06:19:19.341Z,93.31
2023-02-15T06:20:20.219Z,93.73
2023-02-15T06:21:19.749Z,93.83
2023-02-15T06:22:20.571Z,93.73
2023-02-15T06:23:20.126Z,93.52
2023-02-15T06:24:20.304Z,93.31
2023-02-15T06:25:20.460Z,93.62
2023-02-15T06:26:20.622Z,93.83
2023-02-15T06:27:21.748Z,93.62
2023-02-15T06:28:22.218Z,94.10
2023-02-15T06:29:21.109Z,93.68
2023-02-15T06:30:21.338Z,93.48
2023-02-15T06:31:21.574Z,93.37
2023-02-15T06:32:22.218Z,93.27
2023-02-15T06:33:21.878Z,93.27
2023-02-15T06:34:23.713Z,93.16
2023-02-15T06:35:22.225Z,93.58
2023-02-15T06:36:22.435Z,93.48
2023-02-15T06:37:22.584Z,93.68
2023-02-15T06:38:22.758Z,93.68
2023-02-15T06:39:22.901Z,93.68
2023-02-15T06:40:23.115Z,93.68
2023-02-15T06:41:23.246Z,94.24
2023-02-15T06:42:24.217Z,93.89
2023-02-15T06:43:24.240Z,94.10
2023-02-15T06:44:26.658Z,93.68
2023-02-15T06:45:24.580Z,93.05
2023-02-15T06:46:24.348Z,93.79
2023-02-15T06:47:25.319Z,93.58
2023-02-15T06:48:24.453Z,93.68
2023-02-15T06:49:24.599Z,94.41
2023-02-15T06:50:24.767Z,94.20
2023-02-15T06:51:24.909Z,94.41
2023-02-15T06:52:25.046Z,93.79
2023-02-15T06:53:25.761Z,93.48
2023-02-15T06:54:26.499Z,93.37
2023-02-15T06:55:25.655Z,93.27
2023-02-15T06:56:26.754Z,93.16
2023-02-15T06:57:25.996Z,93.12
2023-02-15T06:58:26.136Z,93.33
2023-02-15T06:59:26.259Z,92.18
2023-02-15T07:00:26.515Z,92.39
2023-02-15T07:01:26.659Z,92.39
2023-02-15T07:02:26.852Z,92.03
2023-02-15T07:03:27.720Z,92.03
2023-02-15T07:04:27.233Z,91.93
2023-02-15T07:05:27.451Z,91.62
2023-02-15T07:06:28.723Z,92.03
2023-02-15T07:07:27.732Z,91.52
2023-02-15T07:08:27.895Z,92.24
2023-02-15T07:09:28.721Z,91.72
2023-02-15T07:10:28.265Z,91.41
2023-02-15T07:11:28.426Z,91.83
2023-02-15T07:12:29.252Z,91.83
2023-02-15T07:13:28.758Z,91.10
2023-02-15T07:14:29.130Z,91.41
2023-02-15T07:15:30.743Z,91.31
2023-02-15T07:16:30.327Z,91.25
2023-02-15T07:17:36.840Z,91.52
2023-02-15T07:18:31.511Z,91.10
2023-02-15T07:19:29.630Z,91.62
2023-02-15T07:20:29.828Z,91.52
2023-02-15T07:21:32.218Z,91.52
2023-02-15T07:22:30.210Z,91.58
2023-02-15T07:23:31.212Z,91.31
2023-02-15T07:24:30.607Z,91.16
2023-02-15T07:25:30.806Z,90.44
2023-02-15T07:26:32.217Z,90.54
2023-02-15T07:27:31.096Z,90.23
2023-02-15T07:28:31.284Z,90.12
2023-02-15T07:29:31.478Z,90.64
2023-02-15T07:30:31.857Z,90.60
2023-02-15T07:31:32.762Z,90.70
2023-02-15T07:32:32.077Z,89.87
2023-02-15T07:33:32.163Z,90.08
2023-02-15T07:34:32.350Z,90.04
2023-02-15T07:35:34.714Z,89.73
2023-02-15T07:36:33.729Z,89.73
2023-02-15T07:37:32.869Z,89.42
2023-02-15T07:38:33.061Z,89.27
2023-02-15T07:39:33.225Z,89.23
2023-02-15T07:40:33.387Z,89.15
2023-02-15T07:41:34.221Z,88.67
2023-02-15T07:42:33.719Z,84.79
2023-02-15T07:43:33.937Z,80.58
2023-02-15T07:44:34.353Z,78.52
2023-02-15T07:45:35.252Z,75.15
2023-02-15T07:46:34.483Z,73.33
2023-02-15T07:47:35.580Z,72.27
2023-02-15T07:48:34.738Z,70.32
2023-02-15T07:49:34.957Z,68.68
2023-02-15T07:50:35.147Z,68.92
2023-02-15T07:51:36.259Z,68.24
2023-02-15T07:52:35.774Z,65.18
2023-02-15T07:53:35.723Z,63.72
2023-02-15T07:54:35.917Z,63.51
2023-02-15T07:55:36.755Z,63.79
2023-02-15T07:56:37.155Z,62.63
2023-02-15T07:57:37.529Z,61.69
2023-02-15T07:58:36.740Z,60.97
2023-02-15T07:59:36.932Z,61.49
2023-02-15T08:00:37.133Z,61.22
2023-02-15T08:01:38.266Z,59.66
2023-02-15T08:02:37.621Z,59.46
2023-02-15T08:03:38.236Z,59.36
2023-02-15T08:04:37.910Z,59.59
2023-02-15T08:05:38.725Z,59.92
2023-02-15T08:06:38.762Z,60.21
2023-02-15T08:07:38.429Z,59.49
2023-02-15T08:08:38.580Z,59.26
2023-02-15T08:09:38.719Z,58.95
2023-02-15T08:10:39.722Z,59.08
2023-02-15T08:11:39.786Z,60.03
2023-02-15T08:12:39.296Z,59.95
2023-02-15T08:13:39.439Z,61.80
2023-02-15T08:14:39.582Z,62.68
2023-02-15T08:15:39.732Z,65.47
2023-02-15T08:16:40.054Z,66.96
2023-02-15T08:17:40.101Z,68.46
2023-02-15T08:18:40.279Z,69.94
2023-02-15T08:19:40.463Z,70.69
2023-02-15T08:20:41.233Z,71.75
2023-02-15T08:21:41.743Z,71.89
2023-02-15T08:22:41.772Z,70.66
2023-02-15T08:23:41.161Z,68.85
2023-02-15T08:24:41.784Z,68.01
2023-02-15T08:25:41.436Z,65.22
2023-02-15T08:26:42.421Z,62.92
2023-02-15T08:27:42.751Z,61.53
2023-02-15T08:28:42.730Z,60.05
2023-02-15T08:29:43.738Z,59.58
2023-02-15T08:30:42.732Z,58.67
2023-02-15T08:31:42.447Z,58.00
2023-02-15T08:32:43.178Z,57.43
2023-02-15T08:33:42.672Z,55.96
2023-02-15T08:34:42.928Z,54.57
2023-02-15T08:35:43.736Z,55.25
2023-02-15T08:36:43.737Z,54.92
2023-02-15T08:37:43.233Z,54.51
2023-02-15T08:38:43.383Z,55.12
2023-02-15T08:39:43.542Z,54.69
2023-02-15T08:40:43.705Z,53.75
2023-02-15T08:41:43.854Z,53.85
2023-02-15T08:42:44.008Z,54.77
2023-02-15T08:43:44.149Z,52.69
2023-02-15T08:44:44.375Z,52.06
2023-02-15T08:45:44.680Z,53.32
2023-02-15T08:46:44.738Z,53.93
2023-02-15T08:47:45.791Z,53.19
2023-02-15T08:48:45.135Z,53.09
2023-02-15T08:49:46.241Z,54.97
2023-02-15T08:50:45.605Z,54.79
2023-02-15T08:51:46.295Z,54.72
2023-02-15T08:52:45.929Z,55.22
2023-02-15T08:53:46.118Z,55.25
2023-02-15T08:54:46.307Z,55.55
2023-02-15T08:55:47.248Z,57.51
2023-02-15T08:56:47.248Z,56.57
2023-02-15T08:57:47.786Z,56.16
2023-02-15T08:58:48.744Z,56.98
2023-02-15T08:59:47.255Z,56.65
2023-02-15T09:00:47.639Z,55.91
2023-02-15T09:01:48.597Z,54.77
2023-02-15T09:02:48.315Z,53.60
2023-02-15T09:03:48.611Z,54.49
2023-02-15T09:04:48.043Z,54.38
2023-02-15T09:05:48.232Z,53.98
2023-02-15T09:06:49.498Z,52.64
2023-02-15T09:07:48.809Z,53.14
2023-02-15T09:08:48.873Z,53.96
2023-02-15T09:09:49.068Z,53.96
2023-02-15T09:10:49.788Z,53.78
2023-02-15T09:11:55.200Z,54.51
2023-02-15T09:12:50.618Z,56.05
2023-02-15T09:13:49.789Z,54.84
2023-02-15T09:14:49.961Z,54.31
2023-02-15T09:15:50.142Z,53.19
2023-02-15T09:16:50.445Z,55.15
2023-02-15T09:17:52.254Z,55.88
2023-02-15T09:18:51.250Z,55.85
2023-02-15T09:19:50.913Z,54.41
2023-02-15T09:20:51.076Z,54.61
2023-02-15T09:21:51.242Z,55.12
2023-02-15T09:22:51.402Z,55.02
2023-02-15T09:23:52.299Z,54.84
2023-02-15T09:24:51.721Z,55.04
2023-02-15T09:25:51.879Z,55.12
2023-02-15T09:26:52.035Z,55.70
2023-02-15T09:27:52.753Z,55.30
2023-02-15T09:28:52.397Z,52.66
2023-02-15T09:29:52.620Z,51.81
2023-02-15T09:30:52.743Z,48.85
2023-02-15T09:31:53.843Z,47.00
2023-02-15T09:32:53.137Z,48.78
2023-02-15T09:33:53.285Z,48.96
2023-02-15T09:34:53.815Z,50.67
2023-02-15T09:35:53.599Z,51.68
2023-02-15T09:36:56.158Z,50.80
2023-02-15T09:37:53.883Z,48.70
2023-02-15T09:38:54.056Z,50.12
2023-02-15T09:39:54.769Z,50.29
2023-02-15T09:40:55.264Z,49.05
2023-02-15T09:41:54.525Z,49.05
2023-02-15T09:42:54.715Z,47.34
2023-02-15T09:43:54.903Z,46.11
2023-02-15T09:44:55.087Z,46.11
2023-02-15T09:45:55.856Z,45.89
2023-02-15T09:46:55.408Z,45.18
2023-02-15T09:47:55.594Z,45.46
2023-02-15T09:48:55.778Z,45.36
2023-02-15T09:49:56.317Z,46.55
2023-02-15T09:50:56.120Z,45.66
2023-02-15T09:51:56.326Z,44.15
2023-02-15T09:52:57.308Z,44.15
2023-02-15T09:53:57.303Z,43.85
2023-02-15T09:54:56.941Z,43.54
2023-02-15T09:55:57.128Z,44.15
2023-02-15T09:56:57.314Z,44.23
2023-02-15T09:57:57.826Z,43.95
2023-02-15T09:58:57.626Z,45.64
2023-02-15T09:59:57.803Z,43.40
2023-02-15T10:01:00.165Z,44.43
2023-02-15T10:01:58.778Z,42.88
2023-02-15T10:02:58.297Z,42.15
2023-02-15T10:03:58.449Z,43.08
2023-02-15T10:04:58.603Z,42.68
2023-02-15T10:05:58.770Z,42.07
2023-02-15T10:06:59.781Z,41.55
2023-02-15T10:07:59.176Z,42.66
2023-02-15T10:08:59.346Z,42.25
2023-02-15T10:09:59.511Z,41.15
2023-02-15T10:11:01.134Z,40.95
2023-02-15T10:11:59.875Z,41.25
2023-02-15T10:13:00.067Z,41.65
2023-02-15T10:14:00.788Z,40.73
2023-02-15T10:15:00.421Z,41.03
2023-02-15T10:16:01.315Z,40.70
2023-02-15T10:17:01.813Z,40.92
2023-02-15T10:18:00.964Z,40.62
2023-02-15T10:19:01.154Z,42.24
2023-02-15T10:20:01.306Z,42.54
2023-02-15T10:21:01.762Z,42.33
2023-02-15T10:22:02.256Z,42.15
2023-02-15T10:23:01.794Z,40.62
2023-02-15T10:24:01.976Z,40.83
2023-02-15T10:25:02.824Z,41.05
2023-02-15T10:26:02.688Z,40.75
2023-02-15T10:27:02.534Z,40.77
2023-02-15T10:28:03.323Z,41.47
2023-02-15T10:29:02.870Z,41.65
2023-02-15T10:30:03.842Z,40.84
2023-02-15T10:31:03.640Z,40.92
2023-02-15T10:32:03.576Z,41.95
2023-02-15T10:33:03.662Z,43.36
2023-02-15T10:34:05.829Z,41.67
2023-02-15T10:35:04.788Z,42.07
2023-02-15T10:36:04.305Z,41.87
2023-02-15T10:37:04.477Z,42.10
2023-02-15T10:38:04.645Z,42.60
2023-02-15T10:39:04.855Z,43.00
2023-02-15T10:40:05.346Z,42.70
2023-02-15T10:41:06.789Z,42.44
2023-02-15T10:42:06.286Z,43.37
2023-02-15T10:43:05.587Z,43.69
2023-02-15T10:44:05.805Z,45.32
2023-02-15T10:45:06.792Z,45.93
2023-02-15T10:46:08.174Z,45.20
2023-02-15T10:47:06.464Z,45.10
2023-02-15T10:48:06.653Z,43.59
2023-02-15T10:49:06.817Z,44.49
2023-02-15T10:50:06.968Z,43.99
2023-02-15T10:51:08.292Z,43.60
2023-02-15T10:52:07.350Z,45.93
2023-02-15T10:53:07.517Z,44.13
2023-02-15T10:54:07.657Z,45.77
2023-02-15T10:55:07.837Z,45.97
2023-02-15T10:56:09.295Z,44.35
2023-02-15T10:57:08.207Z,44.86
2023-02-15T10:58:08.370Z,45.16
2023-02-15T10:59:09.796Z,45.37
2023-02-15T11:00:09.305Z,45.75
2023-02-15T11:01:08.892Z,44.74
2023-02-15T11:02:09.905Z,44.46
2023-02-15T11:03:09.368Z,45.69
2023-02-15T11:04:10.301Z,46.28
2023-02-15T11:05:10.382Z,45.39
2023-02-15T11:06:10.349Z,46.09
2023-02-15T11:07:10.025Z,46.62
2023-02-15T11:08:11.163Z,46.62
2023-02-15T11:09:11.805Z,46.52
2023-02-15T11:10:11.299Z,45.73
2023-02-15T11:11:10.793Z,46.34
2023-02-15T11:12:10.951Z,46.64
2023-02-15T11:13:11.850Z,46.12
2023-02-15T11:14:11.277Z,45.59
2023-02-15T11:15:12.343Z,45.57
2023-02-15T11:16:11.669Z,46.17
2023-02-15T11:17:11.870Z,46.17
2023-02-15T11:18:13.824Z,47.06
2023-02-15T11:19:12.227Z,46.53
2023-02-15T11:20:12.412Z,45.53
2023-02-15T11:21:12.601Z,44.56
2023-02-15T11:22:12.775Z,45.00
2023-02-15T11:23:12.940Z,46.14
2023-02-15T11:24:13.132Z,46.26
2023-02-15T11:25:13.309Z,46.34
2023-02-15T11:26:14.348Z,46.32
2023-02-15T11:27:13.689Z,45.43
2023-02-15T11:28:13.812Z,45.73
2023-02-15T11:29:16.757Z,46.67
2023-02-15T11:30:14.169Z,47.23
2023-02-15T11:31:15.442Z,46.80
2023-02-15T11:32:15.053Z,46.20
2023-02-15T11:33:14.628Z,45.18
2023-02-15T11:34:14.779Z,45.71
2023-02-15T11:35:14.911Z,46.06
2023-02-15T11:36:15.066Z,46.56
2023-02-15T11:37:15.808Z,47.98
2023-02-15T11:38:15.864Z,46.97
2023-02-15T11:39:48.514Z,46.75
2023-02-15T11:40:15.765Z,47.17
2023-02-15T11:41:15.921Z,46.16
2023-02-15T11:42:16.888Z,46.36
2023-02-15T11:43:16.850Z,47.17
2023-02-15T11:44:16.526Z,48.23
2023-02-15T11:45:16.689Z,47.22
2023-02-15T11:46:17.396Z,46.91
2023-02-15T11:47:17.059Z,46.10
2023-02-15T11:48:18.251Z,46.33
2023-02-15T11:49:17.395Z,46.43
2023-02-15T11:50:18.353Z,46.63
2023-02-15T11:51:17.756Z,46.71
2023-02-15T11:52:18.856Z,46.61
2023-02-15T11:53:18.149Z,45.78
2023-02-15T11:54:18.299Z,46.97
2023-02-15T11:55:18.474Z,45.87
2023-02-15T11:56:18.622Z,45.98
2023-02-15T11:57:22.317Z,45.98
2023-02-15T11:58:19.892Z,45.70
2023-02-15T11:59:19.895Z,46.30
2023-02-15T12:00:20.215Z,45.90
2023-02-15T12:01:19.474Z,46.38
2023-02-15T12:02:20.454Z,44.06
2023-02-15T12:03:21.428Z,44.56
2023-02-15T12:04:20.919Z,44.48
2023-02-15T12:05:20.248Z,44.27
2023-02-15T12:06:20.420Z,44.48
2023-02-15T12:07:20.591Z,45.37
2023-02-15T12:08:20.780Z,44.15
2023-02-15T12:09:23.358Z,46.16
2023-02-15T12:10:22.101Z,44.12
2023-02-15T12:11:22.222Z,43.41
2023-02-15T12:12:21.896Z,43.20
2023-02-15T12:13:21.519Z,43.51
2023-02-15T12:14:21.704Z,43.32
2023-02-15T12:15:22.386Z,44.03
2023-02-15T12:16:22.052Z,44.24
2023-02-15T12:17:22.897Z,44.13
2023-02-15T12:18:22.897Z,43.63
2023-02-15T12:19:23.445Z,43.81
2023-02-15T12:20:22.607Z,43.41
2023-02-15T12:21:23.421Z,43.81
2023-02-15T12:22:22.961Z,42.60
2023-02-15T12:23:23.142Z,44.01
2023-02-15T12:24:23.307Z,43.79
2023-02-15T12:25:23.454Z,43.97
2023-02-15T12:26:24.408Z,42.25
2023-02-15T12:27:23.808Z,42.74
2023-02-15T12:28:24.415Z,42.32
2023-02-15T12:29:24.175Z,42.13
2023-02-15T12:30:24.386Z,42.43
2023-02-15T12:31:24.603Z,42.41
2023-02-15T12:32:24.758Z,44.54
2023-02-15T12:33:24.901Z,42.09
2023-02-15T12:34:25.065Z,41.18
2023-02-15T12:35:25.230Z,42.29
2023-02-15T12:36:26.870Z,42.98
2023-02-15T12:37:25.610Z,41.79
2023-02-15T12:38:25.784Z,40.88
2023-02-15T12:39:26.917Z,42.49
2023-02-15T12:40:26.071Z,42.09
2023-02-15T12:41:26.254Z,42.19
2023-02-15T12:42:27.364Z,42.82
2023-02-15T12:43:26.654Z,42.72
2023-02-15T12:44:27.868Z,42.64
2023-02-15T12:45:26.988Z,42.13
2023-02-15T12:46:27.255Z,42.15
2023-02-15T12:47:29.320Z,43.67
2023-02-15T12:48:28.569Z,44.66
2023-02-15T12:49:27.734Z,43.75
2023-02-15T12:50:34.615Z,42.54
2023-02-15T12:51:29.917Z,42.64
2023-02-15T12:52:28.319Z,43.06
2023-02-15T12:53:28.487Z,42.66
2023-02-15T12:54:29.401Z,43.46